Time;durP1;ratioP1;P1;durP2;ratioP2;P2;SDS_P1;SDS_P2;PMS_P1;PMS_P2;Temp;Humidity;BMP_temperature;BMP_pressure;BME280_temperature;BME280_humidity;BME280_pressure;Samples;Min_cycle;Max_cycle;Signal;HPM_P1;HPM_P2
2021/08/30 00:01:37;;;;;;;0.98;0.73;;;24.30;59.20;;;;;;5083252;28;20093;-36
2021/08/30 00:04:03;;;;;;;1.40;0.70;;;24.30;59.30;;;;;;5083001;28;20020;-36
2021/08/30 00:06:29;;;;;;;1.10;0.82;;;24.30;59.60;;;;;;5083174;28;20453;-36
2021/08/30 00:08:55;;;;;;;1.00;0.90;;;24.30;59.70;;;;;;5082814;28;20033;-36
2021/08/30 00:11:21;;;;;;;0.98;0.80;;;24.40;60.70;;;;;;5082873;28;20029;-36
2021/08/30 00:13:48;;;;;;;1.80;0.90;;;24.40;60.10;;;;;;5083051;28;20060;-36
2021/08/30 00:16:14;;;;;;;0.95;0.70;;;24.40;60.30;;;;;;5082976;28;20020;-36
2021/08/30 00:18:40;;;;;;;1.02;0.90;;;24.40;60.40;;;;;;5082782;28;20102;-36
2021/08/30 00:21:06;;;;;;;0.77;0.70;;;24.50;60.70;;;;;;5082866;28;20028;-36
2021/08/30 00:23:32;;;;;;;1.75;0.88;;;24.50;60.70;;;;;;5082742;28;20028;-36
2021/08/30 00:26:00;;;;;;;1.55;0.93;;;24.50;60.70;;;;;;5082852;28;20096;-36
2021/08/30 00:28:25;;;;;;;;;;;24.50;60.70;;;;;;5063078;28;20056;-36
2021/08/30 00:30:52;;;;;;;1.65;1.08;;;24.50;60.70;;;;;;5065254;28;19908;-36
2021/08/30 00:33:18;;;;;;;1.30;0.80;;;24.50;60.80;;;;;;5062881;28;20112;-36
2021/08/30 00:35:44;;;;;;;1.67;1.20;;;24.60;60.90;;;;;;5062442;28;20029;-36
2021/08/30 00:38:10;;;;;;;1.65;0.80;;;24.60;61.00;;;;;;5062735;28;20040;-36
2021/08/30 00:40:37;;;;;;;1.08;0.88;;;24.60;61.10;;;;;;5062365;28;20037;-36
2021/08/30 00:43:03;;;;;;;1.58;0.88;;;24.60;61.10;;;;;;5062448;28;20021;-36
2021/08/30 00:45:30;;;;;;;3.73;1.20;;;24.60;61.20;;;;;;5044917;28;20035;-36
2021/08/30 00:47:56;;;;;;;1.63;0.95;;;24.60;61.30;;;;;;5044735;28;20029;-36
2021/08/30 00:50:22;;;;;;;1.20;0.90;;;24.60;61.30;;;;;;5062612;28;20471;-36
2021/08/30 00:52:48;;;;;;;0.85;0.77;;;24.70;61.50;;;;;;5062475;28;20021;-36
2021/08/30 00:55:15;;;;;;;1.30;0.88;;;24.70;61.50;;;;;;5062434;28;20056;-36
2021/08/30 00:57:41;;;;;;;2.03;0.90;;;24.70;61.70;;;;;;5065776;28;20028;-40
2021/08/30 01:00:08;;;;;;;0.80;0.80;;;24.70;61.80;;;;;;5062298;28;20037;-36
2021/08/30 01:02:35;;;;;;;1.77;1.00;;;24.70;62.10;;;;;;5062527;28;20051;-36
2021/08/30 01:05:01;;;;;;;;;;;24.70;61.80;;;;;;5062899;28;20060;-36
2021/08/30 01:07:56;;;;;;;1.05;0.90;;;24.80;61.80;;;;;;5062491;28;19909;-36
2021/08/30 01:10:28;;;;;;;1.05;0.95;;;24.80;61.90;;;;;;5062152;28;20104;-36
2021/08/30 01:13:02;;;;;;;1.52;1.00;;;24.80;61.90;;;;;;5062156;28;20060;-36
2021/08/30 01:15:39;;;;;;;2.80;0.80;;;24.80;61.90;;;;;;5029611;28;20028;-36
2021/08/30 01:18:09;;;;;;;1.23;0.90;;;24.80;62.00;;;;;;5029331;28;20033;-36
2021/08/30 01:20:49;;;;;;;1.42;0.95;;;24.80;62.00;;;;;;5028507;28;20125;-36
2021/08/30 01:23:16;;;;;;;1.33;0.88;;;24.80;61.90;;;;;;5045080;28;20025;-36
2021/08/30 01:25:42;;;;;;;2.08;0.73;;;24.80;62.00;;;;;;5044812;28;20075;-36
2021/08/30 01:28:08;;;;;;;1.83;1.05;;;24.80;62.00;;;;;;5047060;28;20039;-36
2021/08/30 01:30:36;;;;;;;1.33;1.00;;;24.90;62.20;;;;;;5044119;28;20604;-36
2021/08/30 01:33:02;;;;;;;1.75;0.85;;;24.90;62.20;;;;;;5040391;28;20054;-36
2021/08/30 01:35:30;;;;;;;0.90;0.90;;;24.90;62.30;;;;;;5064284;28;20024;-36
2021/08/30 01:37:58;;;;;;;1.45;1.20;;;24.90;62.30;;;;;;5064213;28;20025;-36
2021/08/30 01:40:27;;;;;;;2.40;1.15;;;24.90;62.30;;;;;;5047547;28;20033;-36
2021/08/30 01:42:54;;;;;;;0.90;0.75;;;24.90;62.30;;;;;;5064388;28;20024;-36
2021/08/30 01:45:22;;;;;;;0.90;0.80;;;24.90;62.40;;;;;;5082164;28;20640;-36
2021/08/30 01:47:48;;;;;;;1.90;0.85;;;24.90;62.40;;;;;;5050524;28;20021;-36
2021/08/30 01:50:17;;;;;;;1.15;1.05;;;25.00;62.40;;;;;;5067766;28;20069;-36
2021/08/30 01:52:43;;;;;;;1.10;1.00;;;24.90;62.40;;;;;;5052071;28;20074;-36
2021/08/30 02:00:43;;;;;;;1.63;0.90;;;25.00;62.40;;;;;;5085349;28;20040;-42
2021/08/30 02:03:14;;;;;;;1.85;1.00;;;25.00;62.50;;;;;;5070382;28;20115;-36
2021/08/30 02:05:44;;;;;;;1.83;1.27;;;25.00;62.70;;;;;;5085631;28;20055;-36
2021/08/30 02:08:10;;;;;;;1.83;1.23;;;25.00;62.80;;;;;;5067704;28;20050;-36
2021/08/30 02:10:37;;;;;;;1.90;1.20;;;25.00;62.80;;;;;;5085213;28;20128;-36
2021/08/30 02:13:03;;;;;;;1.40;1.00;;;25.00;62.90;;;;;;5085109;28;20059;-36
2021/08/30 02:15:29;;;;;;;1.30;1.00;;;25.00;62.90;;;;;;5085229;28;20031;-36
2021/08/30 02:17:57;;;;;;;1.73;1.05;;;25.00;62.90;;;;;;5085306;28;20024;-38
2021/08/30 02:20:26;;;;;;;1.67;1.25;;;25.00;62.90;;;;;;5067247;28;20024;-36
2021/08/30 02:22:52;;;;;;;1.90;1.15;;;25.00;63.00;;;;;;5067361;28;20031;-36
2021/08/30 02:25:20;;;;;;;1.70;1.17;;;25.00;63.10;;;;;;5085036;28;20084;-36
2021/08/30 02:28:04;;;;;;;1.40;1.20;;;25.00;63.10;;;;;;5063604;28;20031;-36
2021/08/30 02:30:40;;;;;;;2.97;1.20;;;25.00;63.20;;;;;;5050366;28;20029;-36
2021/08/30 02:33:10;;;;;;;2.67;1.15;;;25.10;63.20;;;;;;5085003;28;20025;-36
2021/08/30 02:35:38;;;;;;;3.00;1.10;;;25.00;63.10;;;;;;5066848;28;20024;-36
2021/08/30 02:38:04;;;;;;;1.88;1.15;;;25.10;63.20;;;;;;5084969;28;20040;-36
2021/08/30 02:40:31;;;;;;;2.03;1.00;;;25.10;63.20;;;;;;5063692;28;20517;-36
2021/08/30 02:42:59;;;;;;;1.63;1.33;;;25.10;63.20;;;;;;5030396;28;20025;-36
2021/08/30 02:45:26;;;;;;;1.55;0.90;;;25.10;63.20;;;;;;5030647;28;20028;-36
2021/08/30 02:47:52;;;;;;;1.77;1.33;;;25.10;63.30;;;;;;5046822;28;20765;-36
2021/08/30 02:50:18;;;;;;;2.42;1.30;;;25.10;63.40;;;;;;5046776;28;20067;-36
2021/08/30 02:52:44;;;;;;;1.75;1.00;;;25.10;63.30;;;;;;5030202;28;20025;-36
2021/08/30 02:55:11;;;;;;;1.55;1.13;;;25.10;63.30;;;;;;5030146;28;20061;-36
2021/08/30 02:57:37;;;;;;;1.13;1.03;;;25.10;63.40;;;;;;5071346;28;20029;-36
2021/08/30 03:00:05;;;;;;;1.65;1.05;;;25.10;63.40;;;;;;5046366;28;20092;-36
2021/08/30 03:02:31;;;;;;;1.33;1.00;;;25.10;63.40;;;;;;5029827;28;20029;-36
2021/08/30 03:04:57;;;;;;;2.38;1.20;;;25.10;63.40;;;;;;5030153;28;20108;-36
2021/08/30 03:07:26;;;;;;;1.70;0.97;;;25.10;63.50;;;;;;5064341;28;20025;-36
2021/08/30 03:09:52;;;;;;;1.02;0.98;;;25.10;63.50;;;;;;5029965;28;20028;-36
2021/08/30 03:12:18;;;;;;;1.58;1.20;;;25.10;63.50;;;;;;5045926;28;20024;-36
2021/08/30 03:14:46;;;;;;;2.58;1.45;;;25.10;63.50;;;;;;5045966;28;20033;-36
2021/08/30 03:17:12;;;;;;;2.33;1.42;;;25.10;63.50;;;;;;5063917;28;20029;-36
2021/08/30 03:19:43;;;;;;;2.10;1.30;;;25.10;63.50;;;;;;5029538;28;20048;-36
2021/08/30 03:22:10;;;;;;;1.70;1.25;;;25.10;63.50;;;;;;5047453;28;20032;-36
2021/08/30 03:24:39;;;;;;;2.40;1.50;;;25.10;63.40;;;;;;5029402;28;20040;-36
2021/08/30 03:27:05;;;;;;;2.45;1.30;;;25.10;63.50;;;;;;5079930;28;20024;-36
2021/08/30 03:29:31;;;;;;;3.10;1.40;;;25.10;63.50;;;;;;5049308;28;20028;-36
2021/08/30 03:31:58;;;;;;;1.25;1.00;;;25.10;63.60;;;;;;5083560;28;20092;-36
2021/08/30 03:34:24;;;;;;;1.45;1.10;;;25.10;63.50;;;;;;5048345;28;20024;-36
2021/08/30 03:36:50;;;;;;;2.77;1.30;;;25.10;63.50;;;;;;5045682;28;20059;-36
2021/08/30 03:39:16;;;;;;;6.20;1.30;;;25.10;63.60;;;;;;5045792;28;20037;-36
2021/08/30 03:41:43;;;;;;;2.22;1.05;;;25.10;63.60;;;;;;5063133;28;20019;-36
2021/08/30 03:44:10;;;;;;;2.05;1.20;;;25.20;63.70;;;;;;5045457;28;20062;-38
2021/08/30 03:46:37;;;;;;;2.33;1.20;;;25.10;63.60;;;;;;5045552;28;20028;-36
2021/08/30 03:49:03;;;;;;;;;;;25.10;63.60;;;;;;5063884;28;20017;-36
2021/08/30 03:51:29;;;;;;;3.22;1.83;;;25.10;63.60;;;;;;5063113;28;19915;-36
2021/08/30 03:53:55;;;;;;;1.20;1.00;;;25.10;63.60;;;;;;5045020;28;20486;-36
2021/08/30 03:56:22;;;;;;;1.67;1.30;;;25.10;63.60;;;;;;5031240;28;20036;-36
2021/08/30 03:58:48;;;;;;;2.35;1.40;;;25.10;63.60;;;;;;5065388;28;20032;-36
2021/08/30 04:01:16;;;;;;;2.00;1.38;;;25.10;63.70;;;;;;5065295;28;20118;-36
2021/08/30 04:03:44;;;;;;;2.05;1.17;;;25.10;63.70;;;;;;5065254;28;20033;-36
2021/08/30 04:06:11;;;;;;;1.83;1.05;;;25.10;63.70;;;;;;5048566;28;20033;-36
2021/08/30 04:08:38;;;;;;;1.55;0.95;;;25.10;63.70;;;;;;5083057;28;20032;-36
2021/08/30 04:11:05;;;;;;;1.55;1.05;;;25.10;63.70;;;;;;5082285;28;20044;-37
2021/08/30 04:13:31;;;;;;;1.73;1.00;;;25.10;63.70;;;;;;5082669;28;20021;-36
2021/08/30 04:15:57;;;;;;;3.53;1.33;;;25.10;63.70;;;;;;5048385;28;20032;-36
2021/08/30 04:18:23;;;;;;;2.35;1.30;;;25.10;63.70;;;;;;5083087;28;20087;-36
2021/08/30 04:20:49;;;;;;;1.88;1.30;;;25.10;63.70;;;;;;5082900;28;20044;-36
2021/08/30 04:23:15;;;;;;;2.97;1.23;;;25.10;63.70;;;;;;5082626;28;20024;-37
2021/08/30 04:25:42;;;;;;;1.53;1.20;;;25.10;63.70;;;;;;5077991;28;20088;-36
2021/08/30 04:28:08;;;;;;;2.13;1.40;;;25.10;63.80;;;;;;5062108;28;20025;-36
2021/08/30 04:30:36;;;;;;;2.75;1.20;;;25.10;63.70;;;;;;5082765;28;20051;-36
2021/08/30 04:33:02;;;;;;;2.25;1.13;;;25.10;63.70;;;;;;5082629;28;20385;-36
2021/08/30 04:35:28;;;;;;;1.75;1.25;;;25.10;63.80;;;;;;5082725;28;20016;-36
2021/08/30 04:37:55;;;;;;;1.38;1.10;;;25.10;63.70;;;;;;5082770;28;20029;-36
2021/08/30 04:40:21;;;;;;;1.95;1.30;;;25.10;63.80;;;;;;5081865;28;20097;-36
2021/08/30 04:42:47;;;;;;;1.73;1.38;;;25.10;63.80;;;;;;5079761;28;20028;-36
2021/08/30 04:45:13;;;;;;;1.27;1.17;;;25.10;63.80;;;;;;5082713;28;20052;-36
2021/08/30 04:47:39;;;;;;;1.55;1.10;;;25.10;63.80;;;;;;5082462;28;20020;-36
2021/08/30 04:50:06;;;;;;;2.40;1.15;;;25.10;63.80;;;;;;5082593;28;20035;-36
2021/08/30 04:52:32;;;;;;;2.15;1.35;;;25.10;63.70;;;;;;5082479;28;20033;-36
2021/08/30 04:54:58;;;;;;;1.48;1.23;;;25.10;63.70;;;;;;5082230;28;20050;-36
2021/08/30 04:57:24;;;;;;;2.10;1.40;;;25.10;63.70;;;;;;5074791;28;20028;-36
2021/08/30 04:59:50;;;;;;;1.63;1.50;;;25.10;63.70;;;;;;5082391;28;20501;-36
2021/08/30 05:02:17;;;;;;;1.77;1.50;;;25.00;63.60;;;;;;5082433;28;20031;-36
2021/08/30 05:04:43;;;;;;;2.13;1.65;;;25.10;63.70;;;;;;5064331;28;20540;-36
2021/08/30 05:07:09;;;;;;;1.58;1.30;;;25.10;63.80;;;;;;5082515;28;20032;-36
2021/08/30 05:09:35;;;;;;;1.40;1.30;;;25.10;63.80;;;;;;5082276;28;20037;-36
2021/08/30 05:12:01;;;;;;;1.50;1.30;;;25.10;63.90;;;;;;5082279;28;20025;-36
2021/08/30 05:14:27;;;;;;;1.40;1.30;;;25.10;64.00;;;;;;5082100;28;20064;-36
2021/08/30 05:16:53;;;;;;;1.10;1.00;;;25.10;64.20;;;;;;5082430;28;20050;-36
2021/08/30 05:19:20;;;;;;;1.30;1.10;;;25.10;64.20;;;;;;5082179;28;20028;-36
2021/08/30 05:21:46;;;;;;;2.10;1.40;;;25.00;64.00;;;;;;5083295;28;20048;-36
2021/08/30 05:24:12;;;;;;;1.83;1.33;;;25.10;64.00;;;;;;5085882;28;20031;-37
2021/08/30 05:26:38;;;;;;;1.27;1.17;;;25.10;64.00;;;;;;5077403;28;20040;-36
2021/08/30 05:29:04;;;;;;;1.83;1.20;;;25.10;63.90;;;;;;5066128;28;20052;-36
2021/08/30 05:31:31;;;;;;;1.42;1.13;;;25.00;63.80;;;;;;5048070;28;20029;-36
2021/08/30 05:33:58;;;;;;;1.33;1.13;;;25.10;63.90;;;;;;5065522;28;20032;-36
2021/08/30 05:36:26;;;;;;;1.88;1.15;;;25.10;63.90;;;;;;5065995;28;20033;-37
2021/08/30 05:38:52;;;;;;;1.65;1.35;;;25.00;63.80;;;;;;5065777;28;20033;-36
2021/08/30 05:41:19;;;;;;;1.85;1.20;;;25.00;63.90;;;;;;5067956;28;20048;-36
2021/08/30 05:43:45;;;;;;;3.30;1.40;;;25.00;63.90;;;;;;5065458;28;20029;-36
2021/08/30 05:46:15;;;;;;;2.40;1.52;;;25.00;64.00;;;;;;5065787;28;20021;-36
2021/08/30 05:48:46;;;;;;;2.50;1.42;;;25.00;64.20;;;;;;5065629;28;20033;-36
2021/08/30 05:51:13;;;;;;;1.95;1.35;;;25.00;64.20;;;;;;5065789;28;20501;-36
2021/08/30 05:53:39;;;;;;;1.83;1.40;;;25.00;64.10;;;;;;5065252;28;20060;-36
2021/08/30 05:56:05;;;;;;;2.13;1.50;;;25.00;64.30;;;;;;5073199;28;20269;-36
2021/08/30 05:58:32;;;;;;;1.48;1.30;;;25.00;64.40;;;;;;5065505;28;20029;-36
2021/08/30 06:00:58;;;;;;;1.67;1.27;;;25.00;64.40;;;;;;5065807;28;20047;-36
2021/08/30 06:03:24;;;;;;;2.30;1.23;;;25.00;64.30;;;;;;5065173;28;20045;-36
2021/08/30 06:05:50;;;;;;;1.38;1.27;;;25.00;64.20;;;;;;5065207;28;20051;-36
2021/08/30 06:08:17;;;;;;;1.08;1.00;;;25.00;64.10;;;;;;5065236;28;20017;-36
2021/08/30 06:10:44;;;;;;;2.38;1.48;;;25.00;64.20;;;;;;5065385;28;20036;-37
2021/08/30 06:13:10;;;;;;;1.63;1.30;;;25.00;64.10;;;;;;5065040;28;20025;-36
2021/08/30 06:15:36;;;;;;;2.55;1.63;;;25.00;64.10;;;;;;5065051;28;20029;-37
2021/08/30 06:18:02;;;;;;;1.50;1.35;;;25.00;64.10;;;;;;5065282;28;20116;-36
2021/08/30 06:20:28;;;;;;;1.20;1.10;;;25.00;64.20;;;;;;5065196;28;20041;-36
2021/08/30 06:22:54;;;;;;;2.22;1.45;;;25.00;64.30;;;;;;5065317;28;20025;-36
2021/08/30 06:25:21;;;;;;;2.20;1.70;;;25.00;64.50;;;;;;5066627;28;20482;-36
2021/08/30 06:27:47;;;;;;;3.80;1.52;;;25.00;64.50;;;;;;5070582;28;20032;-37
2021/08/30 06:30:13;;;;;;;1.67;1.23;;;25.00;64.60;;;;;;5064914;28;20670;-36
2021/08/30 06:32:39;;;;;;;2.45;1.60;;;25.00;64.50;;;;;;5064411;28;20040;-36
2021/08/30 06:35:06;;;;;;;2.87;1.77;;;25.00;64.50;;;;;;5066872;28;20032;-36
2021/08/30 06:37:32;;;;;;;1.63;1.30;;;25.00;64.50;;;;;;5064658;28;20032;-36
2021/08/30 06:39:58;;;;;;;2.53;1.58;;;25.00;64.60;;;;;;5064672;28;20045;-37
2021/08/30 06:42:24;;;;;;;2.88;1.48;;;25.00;64.60;;;;;;5064861;28;20716;-36
2021/08/30 06:44:50;;;;;;;2.30;1.50;;;25.00;64.50;;;;;;5064172;28;20029;-36
2021/08/30 06:47:16;;;;;;;1.58;1.33;;;24.90;64.40;;;;;;5064743;28;20029;-36
2021/08/30 06:49:42;;;;;;;2.33;1.50;;;25.00;64.50;;;;;;5064570;28;20029;-36
2021/08/30 06:52:09;;;;;;;1.45;1.35;;;25.00;64.40;;;;;;5064483;28;20029;-37
2021/08/30 06:54:35;;;;;;;3.05;1.40;;;25.00;64.40;;;;;;5064023;28;20051;-36
2021/08/30 06:57:02;;;;;;;2.63;1.48;;;25.00;64.50;;;;;;5072000;28;20096;-36
2021/08/30 06:59:28;;;;;;;1.70;1.50;;;25.00;64.40;;;;;;5064148;28;20043;-36
2021/08/30 07:01:54;;;;;;;2.70;1.60;;;25.00;64.60;;;;;;5064344;28;20051;-36
2021/08/30 07:04:20;;;;;;;1.77;1.45;;;25.00;64.60;;;;;;5064105;28;20025;-36
2021/08/30 07:06:46;;;;;;;1.80;1.40;;;25.00;64.40;;;;;;5064413;28;20052;-36
2021/08/30 07:09:12;;;;;;;2.75;1.70;;;25.00;64.40;;;;;;5064193;28;20059;-36
2021/08/30 07:11:39;;;;;;;1.58;1.33;;;25.00;64.40;;;;;;5063929;28;20025;-36
2021/08/30 07:14:05;;;;;;;1.80;1.55;;;24.90;64.20;;;;;;5045988;28;20021;-36
2021/08/30 07:16:31;;;;;;;1.85;1.50;;;24.90;64.40;;;;;;5064203;28;20029;-36
2021/08/30 07:18:57;;;;;;;4.57;1.77;;;24.90;65.20;;;;;;5064161;28;20578;-36
2021/08/30 07:21:24;;;;;;;1.98;1.05;;;24.90;64.50;;;;;;5064113;28;20108;-36
2021/08/30 07:23:51;;;;;;;1.80;1.45;;;24.90;64.40;;;;;;5064006;28;20397;-36
2021/08/30 07:26:17;;;;;;;1.52;1.35;;;24.90;64.60;;;;;;5070967;28;20028;-36
2021/08/30 07:28:43;;;;;;;2.33;1.55;;;24.90;64.60;;;;;;5083026;28;20013;-36
2021/08/30 07:31:09;;;;;;;1.90;1.60;;;24.90;64.60;;;;;;5083684;28;20035;-36
2021/08/30 07:33:35;;;;;;;2.35;1.50;;;24.90;64.50;;;;;;5083529;28;20115;-36
2021/08/30 07:36:01;;;;;;;2.75;1.50;;;24.90;64.50;;;;;;5083423;28;20020;-36
2021/08/30 07:38:27;;;;;;;2.42;1.55;;;24.90;64.50;;;;;;5083804;28;20025;-36
2021/08/30 07:40:54;;;;;;;1.63;1.33;;;24.90;64.40;;;;;;5083606;28;20040;-36
2021/08/30 07:43:20;;;;;;;2.17;1.40;;;24.90;64.30;;;;;;5083584;28;20035;-36
2021/08/30 07:45:46;;;;;;;1.33;1.20;;;24.90;64.30;;;;;;5082292;28;20032;-36
2021/08/30 07:48:12;;;;;;;1.60;1.27;;;24.80;64.10;;;;;;5083499;28;20123;-37
2021/08/30 07:50:38;;;;;;;2.17;1.50;;;24.90;64.10;;;;;;5079877;28;20055;-36
2021/08/30 07:53:04;;;;;;;3.95;1.30;;;24.90;64.00;;;;;;5083430;28;20028;-37
2021/08/30 07:55:35;;;;;;;2.10;1.73;;;24.90;64.10;;;;;;5061181;28;20053;-36
2021/08/30 07:58:01;;;;;;;3.00;1.35;;;24.90;64.10;;;;;;5059297;28;20046;-36
2021/08/30 08:00:27;;;;;;;3.03;1.73;;;24.80;64.10;;;;;;5063150;28;20114;-36
2021/08/30 08:02:53;;;;;;;2.58;1.40;;;24.80;64.10;;;;;;5062941;28;20033;-36
2021/08/30 08:05:19;;;;;;;4.82;1.60;;;24.80;64.20;;;;;;5062961;28;20064;-36
2021/08/30 08:07:45;;;;;;;1.98;1.35;;;24.80;64.20;;;;;;5063211;28;20025;-36
2021/08/30 08:10:12;;;;;;;3.90;1.52;;;24.80;64.20;;;;;;5062871;28;20039;-36
2021/08/30 08:12:38;;;;;;;1.90;1.58;;;24.80;64.20;;;;;;5062882;28;20029;-36
2021/08/30 08:15:05;;;;;;;1.77;1.52;;;24.80;64.20;;;;;;5062648;28;20108;-36
2021/08/30 08:17:33;;;;;;;2.63;1.58;;;24.80;64.20;;;;;;5062831;28;20028;-36
2021/08/30 08:20:00;;;;;;;1.80;1.50;;;24.80;64.10;;;;;;5062899;28;20044;-36
2021/08/30 08:22:27;;;;;;;1.48;1.38;;;24.80;64.10;;;;;;5062627;28;20033;-36
2021/08/30 08:24:54;;;;;;;1.58;1.48;;;24.80;64.00;;;;;;5062717;28;20513;-36
2021/08/30 08:27:20;;;;;;;;;;;24.80;64.00;;;;;;5062569;28;20029;-36
2021/08/30 08:29:47;;;;;;;1.65;1.52;;;24.80;64.10;;;;;;5069264;28;19962;-36
2021/08/30 08:32:13;;;;;;;2.00;1.50;;;24.80;64.00;;;;;;5082606;28;20056;-36
2021/08/30 08:34:39;;;;;;;2.55;1.58;;;24.80;64.10;;;;;;5082619;28;20028;-36
2021/08/30 08:37:05;;;;;;;2.63;1.60;;;24.80;64.10;;;;;;5082494;28;20047;-36
2021/08/30 08:39:31;;;;;;;3.03;1.50;;;24.80;64.20;;;;;;5082594;28;20106;-36
2021/08/30 08:41:57;;;;;;;2.90;1.65;;;24.80;64.20;;;;;;5082231;28;20029;-37
2021/08/30 08:44:23;;;;;;;1.48;1.10;;;24.80;64.20;;;;;;5082695;28;20056;-36
2021/08/30 08:46:50;;;;;;;2.17;1.50;;;24.80;64.20;;;;;;5082230;28;20032;-36
2021/08/30 08:49:16;;;;;;;1.63;1.50;;;24.80;64.20;;;;;;5048005;28;20025;-36
2021/08/30 08:51:42;;;;;;;1.83;1.48;;;24.80;64.20;;;;;;5082178;28;20063;-36
2021/08/30 08:54:08;;;;;;;2.35;1.48;;;24.80;64.20;;;;;;5082165;28;20127;-36
2021/08/30 08:56:34;;;;;;;2.77;1.47;;;24.80;64.20;;;;;;5072520;28;20036;-36
2021/08/30 08:59:01;;;;;;;3.47;1.60;;;24.70;64.00;;;;;;5066510;28;20045;-36
2021/08/30 09:01:27;;;;;;;1.75;1.50;;;24.70;64.10;;;;;;5066141;28;20061;-36
2021/08/30 09:03:57;;;;;;;2.55;1.70;;;24.70;64.10;;;;;;5059158;28;20033;-36
2021/08/30 09:06:31;;;;;;;1.98;1.40;;;24.70;64.20;;;;;;5066315;28;20509;-36
2021/08/30 09:09:02;;;;;;;1.75;1.45;;;24.70;64.20;;;;;;5066340;28;20031;-36
2021/08/30 09:11:44;;;;;;;1.85;1.48;;;24.70;64.20;;;;;;5066171;28;20693;-36
2021/08/30 09:14:17;;;;;;;2.50;1.67;;;24.70;64.20;;;;;;5066207;28;20029;-36
2021/08/30 09:16:44;;;;;;;2.50;1.52;;;24.70;64.40;;;;;;5066345;28;20025;-36
2021/08/30 09:19:11;;;;;;;1.90;1.60;;;24.70;64.30;;;;;;5066343;28;20033;-36
2021/08/30 09:21:47;;;;;;;2.70;1.67;;;24.70;64.30;;;;;;5065348;28;20100;-36
2021/08/30 09:24:20;;;;;;;1.83;1.60;;;24.70;64.30;;;;;;5065798;28;20029;-36
2021/08/30 09:27:04;;;;;;;2.97;1.40;;;24.70;64.30;;;;;;5065938;28;20106;-36
2021/08/30 09:29:31;;;;;;;1.95;1.55;;;24.70;64.30;;;;;;5065803;28;20045;-36
2021/08/30 09:32:10;;;;;;;3.45;1.88;;;24.70;64.30;;;;;;5065744;28;20062;-36
2021/08/30 09:34:40;;;;;;;2.95;2.05;;;24.60;64.30;;;;;;5065870;28;20033;-36
2021/08/30 09:37:18;;;;;;;2.58;1.60;;;24.60;64.30;;;;;;5065662;28;20093;-36
2021/08/30 09:39:48;;;;;;;3.60;1.70;;;24.60;64.30;;;;;;5065555;28;20821;-36
2021/08/30 09:42:14;;;;;;;1.77;1.40;;;24.60;64.30;;;;;;5065175;28;20089;-37
2021/08/30 09:44:41;;;;;;;2.13;1.63;;;24.60;64.30;;;;;;5065495;28;20052;-36
2021/08/30 09:47:14;;;;;;;2.15;1.63;;;24.60;64.40;;;;;;5065579;28;20048;-36
2021/08/30 09:49:41;;;;;;;2.40;1.50;;;24.60;64.40;;;;;;5065489;28;20025;-37
2021/08/30 09:52:07;;;;;;;2.30;1.50;;;24.60;64.40;;;;;;5065206;28;20033;-37
2021/08/30 09:54:34;;;;;;;4.18;2.05;;;24.60;64.40;;;;;;5065222;28;20048;-36
2021/08/30 09:57:00;;;;;;;2.17;1.50;;;24.60;64.40;;;;;;5064677;28;20036;-36
2021/08/30 09:59:26;;;;;;;1.70;1.60;;;24.60;64.40;;;;;;5065093;28;20032;-36
2021/08/30 10:01:55;;;;;;;2.53;1.67;;;24.60;64.50;;;;;;5065256;28;20029;-36
2021/08/30 10:04:21;;;;;;;2.28;1.65;;;24.60;64.50;;;;;;5047346;28;20017;-37
2021/08/30 10:06:51;;;;;;;1.60;1.50;;;24.60;64.50;;;;;;5064971;28;20041;-36
2021/08/30 10:09:20;;;;;;;2.45;1.55;;;24.60;64.50;;;;;;5064850;28;20393;-36
2021/08/30 10:11:47;;;;;;;2.10;1.70;;;24.60;64.50;;;;;;5046905;28;20052;-36
2021/08/30 10:14:17;;;;;;;;;;;24.60;64.50;;;;;;5065562;28;20573;-36
2021/08/30 10:16:43;;;;;;;2.67;1.65;;;24.60;64.60;;;;;;5065081;28;19905;-36
2021/08/30 10:19:09;;;;;;;2.25;1.48;;;24.60;64.60;;;;;;5046882;28;20045;-36
2021/08/30 10:21:53;;;;;;;3.15;1.80;;;24.60;64.60;;;;;;5063759;28;20037;-36
2021/08/30 10:24:19;;;;;;;2.33;1.58;;;24.60;64.60;;;;;;5064854;28;20029;-36
2021/08/30 10:26:47;;;;;;;2.57;1.67;;;24.60;64.60;;;;;;5064757;28;20039;-37
2021/08/30 10:29:13;;;;;;;2.13;1.70;;;24.60;64.60;;;;;;5064778;28;20029;-36
2021/08/30 10:31:50;;;;;;;3.08;1.55;;;24.60;64.60;;;;;;5064294;28;20040;-37
2021/08/30 10:34:24;;;;;;;2.42;1.35;;;24.60;64.60;;;;;;5046931;28;20033;-36
2021/08/30 10:36:51;;;;;;;2.35;1.60;;;24.50;64.60;;;;;;5046947;28;20390;-36
2021/08/30 10:39:17;;;;;;;;;;;24.50;64.60;;;;;;5064949;28;20037;-36
2021/08/30 10:41:44;;;;;;;1.67;1.50;;;24.50;64.70;;;;;;5064461;28;19909;-36
2021/08/30 10:44:12;;;;;;;;;;;24.50;64.60;;;;;;5064783;28;20066;-36
2021/08/30 10:46:53;;;;;;;2.38;1.80;;;24.50;64.60;;;;;;5064414;28;19912;-36
2021/08/30 10:49:30;;;;;;;4.35;1.63;;;24.50;64.60;;;;;;5064421;28;20033;-36
2021/08/30 10:52:11;;;;;;;2.23;1.60;;;24.50;64.70;;;;;;5064283;28;20029;-36
2021/08/30 10:54:56;;;;;;;2.97;1.60;;;24.50;64.70;;;;;;5064046;28;20049;-36
2021/08/30 10:57:36;;;;;;;2.33;1.50;;;24.50;64.70;;;;;;5046005;28;20021;-36
2021/08/30 11:00:07;;;;;;;1.58;1.45;;;24.50;64.70;;;;;;5046036;28;20048;-36
2021/08/30 11:02:44;;;;;;;1.77;1.40;;;24.50;64.80;;;;;;5063925;28;20021;-36
2021/08/30 11:05:11;;;;;;;2.22;1.55;;;24.50;64.80;;;;;;5064279;28;20056;-37
2021/08/30 11:07:37;;;;;;;1.58;1.40;;;24.50;64.80;;;;;;5063997;28;20033;-37
2021/08/30 11:10:07;;;;;;;2.87;1.37;;;24.50;64.80;;;;;;5063266;28;20041;-37
2021/08/30 11:12:33;;;;;;;3.15;1.80;;;24.50;64.90;;;;;;5063586;28;20032;-37
2021/08/30 11:14:59;;;;;;;2.03;1.77;;;24.50;64.90;;;;;;5029488;28;20079;-36
2021/08/30 11:17:30;;;;;;;1.77;1.67;;;24.50;64.90;;;;;;5063223;28;20048;-36
2021/08/30 11:19:56;;;;;;;3.55;1.67;;;24.50;64.80;;;;;;5063757;28;20061;-36
2021/08/30 11:22:26;;;;;;;3.40;1.70;;;24.50;64.90;;;;;;5063761;28;20115;-37
2021/08/30 11:24:57;;;;;;;2.25;1.65;;;24.50;65.00;;;;;;5040833;28;20029;-37
2021/08/30 11:27:27;;;;;;;3.75;1.48;;;24.40;64.80;;;;;;5055841;28;20024;-36
2021/08/30 11:30:01;;;;;;;1.90;1.55;;;24.40;64.90;;;;;;5063575;28;20032;-36
2021/08/30 11:32:31;;;;;;;2.85;1.80;;;24.40;64.90;;;;;;5063470;28;20033;-36
2021/08/30 11:34:57;;;;;;;1.98;1.48;;;24.40;64.90;;;;;;5063539;28;20029;-36
2021/08/30 11:37:28;;;;;;;2.95;1.80;;;24.40;64.90;;;;;;5063512;28;20093;-36
2021/08/30 11:39:55;;;;;;;2.47;1.77;;;24.40;64.90;;;;;;5045321;28;20107;-36
2021/08/30 11:42:23;;;;;;;3.75;1.60;;;24.40;64.90;;;;;;5063387;28;20031;-36
2021/08/30 11:44:50;;;;;;;3.08;1.70;;;24.40;64.90;;;;;;5063122;28;20479;-36
2021/08/30 11:47:17;;;;;;;1.70;1.50;;;24.40;64.90;;;;;;5063497;28;20022;-36
2021/08/30 11:49:50;;;;;;;2.45;1.50;;;24.40;65.00;;;;;;5045580;28;20073;-36
2021/08/30 11:52:19;;;;;;;2.80;2.00;;;24.40;64.90;;;;;;5063271;28;20768;-36
2021/08/30 11:55:11;;;;;;;1.83;1.70;;;24.40;64.90;;;;;;5062706;28;20140;-36
2021/08/30 11:57:44;;;;;;;2.08;1.60;;;24.40;64.90;;;;;;5056124;28;20025;-36
2021/08/30 12:00:15;;;;;;;3.28;1.73;;;24.40;64.90;;;;;;5062981;28;20028;-36
2021/08/30 12:02:41;;;;;;;3.55;1.80;;;24.40;64.90;;;;;;5062434;28;20028;-36
2021/08/30 12:05:08;;;;;;;2.53;1.67;;;24.40;65.00;;;;;;5062827;28;20124;-36
2021/08/30 12:07:35;;;;;;;2.10;1.63;;;24.40;65.00;;;;;;5062907;28;20056;-36
2021/08/30 12:10:02;;;;;;;2.13;1.70;;;24.30;64.90;;;;;;5062945;28;20021;-36
2021/08/30 12:12:32;;;;;;;2.13;1.73;;;24.30;64.90;;;;;;5062724;28;20064;-37
2021/08/30 12:15:07;;;;;;;2.20;1.77;;;24.30;64.90;;;;;;5062556;28;20044;-37
2021/08/30 12:17:41;;;;;;;2.13;1.60;;;24.30;65.00;;;;;;5062472;28;20033;-37
2021/08/30 12:20:08;;;;;;;3.13;2.05;;;24.30;64.90;;;;;;5062544;28;20040;-40
2021/08/30 12:22:39;;;;;;;2.40;1.80;;;24.30;64.90;;;;;;5062815;28;20140;-36
2021/08/30 12:25:10;;;;;;;2.33;1.70;;;24.30;65.00;;;;;;5062403;28;20029;-36
2021/08/30 12:27:39;;;;;;;3.40;1.70;;;24.30;65.00;;;;;;5055325;28;20028;-36
2021/08/30 12:30:13;;;;;;;2.05;1.60;;;24.30;65.00;;;;;;5062225;28;20035;-36
2021/08/30 12:32:53;;;;;;;1.65;1.50;;;24.30;65.00;;;;;;5062812;28;20108;-36
2021/08/30 12:35:25;;;;;;;2.13;1.55;;;24.30;64.90;;;;;;5062149;28;20039;-36
2021/08/30 12:37:56;;;;;;;2.95;1.90;;;24.30;64.90;;;;;;5062452;28;20021;-36
2021/08/30 12:40:22;;;;;;;2.30;1.60;;;24.30;64.90;;;;;;5061615;28;20063;-36
2021/08/30 12:42:49;;;;;;;2.37;1.77;;;24.30;64.90;;;;;;5062308;28;20037;-36
2021/08/30 12:45:15;;;;;;;3.53;1.42;;;24.30;64.90;;;;;;5062106;28;20490;-36
2021/08/30 12:47:41;;;;;;;2.03;1.83;;;24.30;64.90;;;;;;5062432;28;20044;-36
2021/08/30 12:50:08;;;;;;;1.87;1.43;;;24.30;64.80;;;;;;5062126;28;20029;-36
2021/08/30 12:52:35;;;;;;;3.65;1.70;;;24.30;64.80;;;;;;5062355;28;20025;-36
2021/08/30 12:55:03;;;;;;;2.05;1.55;;;24.30;64.80;;;;;;5061723;28;20049;-36
2021/08/30 12:57:29;;;;;;;2.13;1.60;;;24.30;65.50;;;;;;5062102;28;20025;-36